Time;durP1;ratioP1;P1;durP2;ratioP2;P2;SDS_P1;SDS_P2;PMS_P1;PMS_P2;Temp;Humidity;BMP_temperature;BMP_pressure;BME280_temperature;BME280_humidity;BME280_pressure;Samples;Min_cycle;Max_cycle;Signal;HPM_P1;HPM_P2
2022/12/04 00:00:52;;;;;;;110.20;69.60;;;;;;;1.40;78.18;101136.68;107822;1289;23593;-80
2022/12/04 00:03:24;;;;;;;113.40;72.60;;;;;;;1.40;78.15;101141.82;107845;1285;22496;-80
2022/12/04 00:06:26;;;;;;;118.10;72.10;;;;;;;1.38;78.06;101139.92;108436;1281;21945;-80
2022/12/04 00:08:55;;;;;;;120.00;74.70;;;;;;;1.36;78.23;101137.33;107781;1292;23716;-81
2022/12/04 00:11:34;;;;;;;123.90;73.70;;;;;;;1.36;78.32;101131.65;107806;1292;23065;-79
2022/12/04 00:14:07;;;;;;;115.90;74.70;;;;;;;1.38;78.40;101133.58;107621;1292;21938;-81
2022/12/04 00:16:37;;;;;;;113.90;73.40;;;;;;;1.39;78.35;101128.09;107866;1289;23122;-80
2022/12/04 00:19:17;;;;;;;109.60;73.00;;;;;;;1.39;78.30;101122.42;108198;1289;22120;-79
2022/12/04 00:22:08;;;;;;;121.60;74.90;;;;;;;1.37;78.31;101122.57;108256;1287;21956;-79
2022/12/04 00:24:42;;;;;;;116.20;71.90;;;;;;;1.36;78.36;101119.64;107975;1288;22043;-79
2022/12/04 00:27:25;;;;;;;113.70;73.00;;;;;;;1.37;78.35;101117.25;108266;1289;22741;-79
2022/12/04 00:29:57;;;;;;;117.50;72.80;;;;;;;1.37;78.36;101119.33;108191;1289;21928;-80
2022/12/04 00:32:31;;;;;;;109.50;71.90;;;;;;;1.37;78.38;101118.11;108044;1288;22400;-79
2022/12/04 00:35:08;;;;;;;111.50;72.80;;;;;;;1.36;78.38;101116.56;107736;1289;21964;-80
2022/12/04 00:37:37;;;;;;;127.50;77.60;;;;;;;1.39;78.50;101116.59;108109;1289;21971;-79
2022/12/04 00:40:07;;;;;;;118.40;73.30;;;;;;;1.40;78.40;101117.13;107740;1292;22314;-80
2022/12/04 00:42:46;;;;;;;124.30;75.50;;;;;;;1.40;78.42;101113.53;107630;1289;21973;-80
2022/12/04 00:45:21;;;;;;;114.30;75.20;;;;;;;1.39;78.38;101108.88;108111;1286;21966;-80
2022/12/04 00:47:50;;;;;;;119.20;76.60;;;;;;;1.40;78.44;101113.87;108553;1284;22888;-80
2022/12/04 00:50:18;;;;;;;117.00;75.10;;;;;;;1.44;78.54;101109.80;108514;1286;21934;-80
2022/12/04 00:52:54;;;;;;;116.60;77.90;;;;;;;1.44;78.53;101106.72;108403;1281;22016;-79
2022/12/04 00:55:32;;;;;;;119.80;75.30;;;;;;;1.44;78.54;101103.45;108350;1286;21958;-79
2022/12/04 00:58:17;;;;;;;119.30;75.30;;;;;;;1.44;78.58;101097.09;108366;1285;22338;-79
2022/12/04 01:00:45;;;;;;;113.60;71.50;;;;;;;1.46;78.62;101093.69;108272;1282;21954;-79
2022/12/04 01:03:21;;;;;;;117.40;73.00;;;;;;;1.46;78.58;101088.90;108391;1283;21942;-79
2022/12/04 01:05:51;;;;;;;116.70;72.20;;;;;;;1.46;78.59;101089.41;108065;1289;21975;-79
2022/12/04 01:08:21;;;;;;;;;;;;;;;1.48;78.59;101089.95;108150;1289;21932;-79
2022/12/04 01:10:54;;;;;;;;;;;;;;;1.44;78.86;101086.29;107757;1292;23070;-79
2022/12/04 01:13:30;;;;;;;118.40;67.10;;;;;;;1.39;79.03;101086.76;107812;1292;22304;-80
2022/12/04 01:16:00;;;;;;;111.20;70.70;;;;;;;1.42;78.92;101086.96;107860;1292;23097;-79
2022/12/04 01:18:29;;;;;;;105.60;69.90;;;;;;;1.47;78.93;101088.22;107841;1291;23665;-80
2022/12/04 01:21:11;;;;;;;106.70;68.60;;;;;;;1.49;78.89;101084.46;108010;1287;23681;-81
2022/12/04 01:24:00;;;;;;;103.70;68.80;;;;;;;1.50;78.80;101078.13;107895;1289;21966;-79
2022/12/04 01:26:41;;;;;;;108.80;71.00;;;;;;;1.50;78.92;101076.77;107655;1286;22057;-79
2022/12/04 01:29:41;;;;;;;108.30;69.00;;;;;;;1.49;78.74;101072.80;108291;1286;21958;-82
2022/12/04 01:32:21;;;;;;;115.20;69.60;;;;;;;1.51;78.89;101068.02;108326;1286;22478;-81
2022/12/04 01:35:12;;;;;;;105.00;66.30;;;;;;;1.51;78.84;101069.23;107914;1280;23699;-81
2022/12/04 01:37:48;;;;;;;105.30;68.20;;;;;;;1.54;78.83;101068.56;108086;1286;23141;-79
2022/12/04 01:40:16;;;;;;;105.40;69.10;;;;;;;1.57;78.80;101073.23;108220;1278;23614;-79
2022/12/04 01:42:57;;;;;;;105.90;69.70;;;;;;;1.57;78.69;101070.83;108263;1280;21987;-78
2022/12/04 01:45:45;;;;;;;101.10;66.00;;;;;;;1.57;78.67;101068.77;108226;1281;21917;-80
2022/12/04 01:48:32;;;;;;;102.20;67.00;;;;;;;1.54;78.73;101066.50;108546;1280;23669;-79
2022/12/04 01:51:22;;;;;;;107.30;70.50;;;;;;;1.52;78.70;101062.88;108569;1277;21952;-80
2022/12/04 01:54:13;;;;;;;101.40;65.90;;;;;;;1.49;78.71;101063.38;108402;1280;21936;-80
2022/12/04 01:57:01;;;;;;;100.80;65.80;;;;;;;1.48;78.81;101061.48;108411;1280;21988;-79
2022/12/04 02:00:21;;;;;;;96.10;64.10;;;;;;;1.48;78.79;101059.57;108640;1280;21957;-79
2022/12/04 02:02:54;;;;;;;99.00;63.90;;;;;;;1.46;78.84;101056.30;107676;1291;21964;-78
2022/12/04 02:05:30;;;;;;;101.30;66.00;;;;;;;1.47;78.96;101055.11;107469;1291;23628;-78
2022/12/04 02:08:09;;;;;;;100.10;66.10;;;;;;;1.47;78.88;101058.71;107671;1287;22027;-79
2022/12/04 02:11:17;;;;;;;100.20;67.90;;;;;;;1.49;78.87;101054.45;107633;1292;21952;-79
2022/12/04 02:14:23;;;;;;;91.90;61.10;;;;;;;1.51;78.91;101050.00;107933;1280;22075;-79
2022/12/04 02:17:21;;;;;;;;;;;;;;;1.48;79.09;101049.30;107748;1292;21941;-78
2022/12/04 02:20:20;;;;;;;94.20;61.00;;;;;;;1.39;79.30;101045.42;107080;1298;22069;-82
2022/12/04 02:23:32;;;;;;;88.40;60.30;;;;;;;1.38;79.30;101044.04;106988;1298;21960;-80
2022/12/04 02:26:19;;;;;;;85.40;56.90;;;;;;;1.40;79.31;101043.38;107142;1297;22030;-79
2022/12/04 02:29:22;;;;;;;85.10;59.50;;;;;;;1.43;79.36;101039.46;107404;1294;21980;-79
2022/12/04 02:32:06;;;;;;;95.30;63.00;;;;;;;1.47;79.41;101044.84;106688;1300;22021;-78
2022/12/04 02:34:59;;;;;;;93.20;62.20;;;;;;;1.52;79.40;101044.35;106637;1299;21971;-79
2022/12/04 02:37:40;;;;;;;87.40;58.20;;;;;;;1.54;79.24;101046.44;106140;1302;21951;-78
2022/12/04 02:40:32;;;;;;;88.60;61.20;;;;;;;1.58;79.42;101040.64;107016;1294;21947;-79
2022/12/04 02:43:31;;;;;;;89.50;60.30;;;;;;;1.60;79.30;101041.17;107120;1295;22206;-79
2022/12/04 02:46:38;;;;;;;85.70;59.30;;;;;;;1.62;79.35;101042.22;107779;1282;21939;-80
2022/12/04 02:49:26;;;;;;;86.00;58.70;;;;;;;1.64;79.30;101043.27;108136;1285;21911;-82
2022/12/04 02:52:07;;;;;;;82.80;57.60;;;;;;;1.66;79.25;101042.44;108565;1285;21937;-82
2022/12/04 02:55:01;;;;;;;84.90;58.70;;;;;;;1.68;79.24;101041.08;108479;1277;22125;-82
2022/12/04 02:57:54;;;;;;;84.30;61.40;;;;;;;1.70;79.27;101042.31;108548;1280;22009;-82
2022/12/04 03:00:22;;;;;;;81.20;58.30;;;;;;;1.73;79.20;101039.08;108724;1280;21949;-79
2022/12/04 03:03:00;;;;;;;80.30;57.80;;;;;;;1.73;79.07;101037.53;108354;1280;21944;-79
2022/12/04 03:06:03;;;;;;;77.50;56.00;;;;;;;1.74;79.19;101031.88;108438;1280;21908;-80
2022/12/04 03:08:45;;;;;;;79.00;55.30;;;;;;;1.74;79.14;101028.97;108613;1280;21946;-79
2022/12/04 03:11:14;;;;;;;83.70;58.50;;;;;;;1.74;79.12;101034.96;108564;1280;21964;-79
2022/12/04 03:14:17;;;;;;;74.60;56.10;;;;;;;1.76;79.13;101032.58;108419;1286;21971;-78
2022/12/04 03:17:01;;;;;;;85.20;59.00;;;;;;;1.76;79.15;101033.95;108066;1291;21945;-79
2022/12/04 03:19:40;;;;;;;72.50;52.70;;;;;;;1.77;79.15;101031.38;107426;1292;22158;-78
2022/12/04 03:22:17;;;;;;;75.60;55.00;;;;;;;1.77;79.11;101030.54;107725;1290;23110;-81
2022/12/04 03:24:53;;;;;;;75.90;56.40;;;;;;;1.78;79.05;101033.12;107409;1294;21965;-79
2022/12/04 03:27:56;;;;;;;72.30;52.00;;;;;;;1.81;79.10;101030.91;107641;1294;22737;-82
2022/12/04 03:30:36;;;;;;;74.10;54.50;;;;;;;1.83;79.14;101038.48;107946;1294;21977;-83
2022/12/04 03:34:00;;;;;;;76.00;56.30;;;;;;;1.80;79.12;101039.99;107597;1287;21965;-82
2022/12/04 03:36:42;;;;;;;72.10;54.10;;;;;;;1.82;79.11;101038.81;107986;1289;21941;-81
2022/12/04 03:39:34;;;;;;;73.80;55.40;;;;;;;1.83;79.12;101038.31;108304;1286;21961;-81
2022/12/04 03:42:24;;;;;;;77.90;57.20;;;;;;;1.84;79.18;101037.46;108411;1285;22723;-82
2022/12/04 03:45:27;;;;;;;74.00;53.70;;;;;;;1.87;79.18;101033.54;108383;1285;22174;-81
2022/12/04 03:48:14;;;;;;;75.10;55.00;;;;;;;1.87;79.18;101031.31;108309;1285;22379;-81
2022/12/04 03:51:02;;;;;;;69.20;52.10;;;;;;;1.91;79.13;101031.17;108245;1289;22037;-80
2022/12/04 03:53:40;;;;;;;73.80;55.10;;;;;;;1.94;79.10;101029.83;108276;1289;21955;-82
2022/12/04 03:56:23;;;;;;;70.70;54.20;;;;;;;1.95;79.09;101029.14;108063;1289;23192;-80
2022/12/04 04:00:11;;;;;;;73.00;54.70;;;;;;;1.96;79.07;101027.09;107836;1289;23013;-81
2022/12/04 04:03:04;;;;;;;69.80;53.10;;;;;;;1.98;79.09;101028.31;107688;1294;21953;-81
2022/12/04 04:05:53;;;;;;;67.40;51.70;;;;;;;2.00;79.03;101027.65;107634;1293;21964;-81
2022/12/04 04:08:33;;;;;;;67.40;52.50;;;;;;;2.02;78.97;101023.70;107840;1288;21961;-81
2022/12/04 04:11:34;;;;;;;69.30;52.20;;;;;;;2.06;79.01;101020.98;108053;1288;23190;-82
2022/12/04 04:26:01;;;;;;;63.20;49.20;;;;;;;2.13;78.88;101024.66;107201;1297;21964;-79
2022/12/04 04:28:41;;;;;;;67.80;52.50;;;;;;;2.15;78.76;101027.92;107054;1298;21993;-79
2022/12/04 04:31:30;;;;;;;64.80;49.60;;;;;;;2.16;78.84;101028.80;106351;1303;22956;-80
2022/12/04 04:34:25;;;;;;;69.30;50.70;;;;;;;2.18;78.83;101029.32;106569;1301;22006;-80
2022/12/04 04:37:31;;;;;;;64.90;48.50;;;;;;;2.21;78.70;101030.04;106788;1301;23040;-79
2022/12/04 04:40:29;;;;;;;62.00;48.30;;;;;;;2.21;78.86;101025.58;106410;1303;21969;-80
2022/12/04 04:43:12;;;;;;;57.10;44.90;;;;;;;2.24;78.84;101027.48;106360;1303;21967;-79
2022/12/04 04:45:48;;;;;;;43.30;31.10;;;;;;;2.23;78.74;101028.69;106385;1303;22853;-81
2022/12/04 04:48:39;;;;;;;61.60;48.10;;;;;;;2.24;78.75;101029.04;106681;1300;21970;-81
2022/12/04 04:51:12;;;;;;;67.60;48.80;;;;;;;2.28;78.76;101031.64;106488;1303;23659;-81
2022/12/04 04:53:55;;;;;;;61.70;49.40;;;;;;;2.32;78.51;101028.05;106549;1303;22023;-81
2022/12/04 04:56:25;;;;;;;64.60;47.10;;;;;;;2.33;78.53;101029.25;106337;1306;22012;-81
2022/12/04 04:59:00;;;;;;;56.20;46.80;;;;;;;2.34;78.48;101023.42;106884;1300;21947;-80
2022/12/04 05:01:54;;;;;;;63.30;45.90;;;;;;;2.36;78.37;101019.33;107007;1300;21995;-80
2022/12/04 05:04:29;;;;;;;57.80;46.30;;;;;;;2.36;78.38;101015.70;106999;1300;22077;-81
2022/12/04 05:07:01;;;;;;;58.50;45.80;;;;;;;2.35;78.32;101020.86;106900;1299;22803;-80
2022/12/04 05:09:29;;;;;;;56.00;45.40;;;;;;;2.34;78.27;101021.20;106707;1300;21997;-80
2022/12/04 05:11:56;;;;;;;58.60;46.60;;;;;;;2.34;78.27;101023.08;106934;1300;21961;-81
2022/12/04 05:14:24;;;;;;;61.20;45.70;;;;;;;2.31;78.39;101027.88;107001;1297;21956;-81
2022/12/04 05:16:53;;;;;;;56.40;45.70;;;;;;;2.30;78.31;101029.25;107763;1283;21985;-81
2022/12/04 05:22:08;;;;;;;60.30;47.70;;;;;;;2.29;78.29;101030.45;108385;1279;21942;-80
2022/12/04 05:24:36;;;;;;;57.40;44.20;;;;;;;2.30;78.26;101027.88;108407;1283;21995;-81
2022/12/04 05:27:03;;;;;;;52.70;44.00;;;;;;;2.31;78.26;101024.10;108310;1283;22014;-80
2022/12/04 05:29:30;;;;;;;56.90;43.90;;;;;;;2.30;78.24;101022.02;108360;1283;22928;-82
2022/12/04 05:32:03;;;;;;;51.50;42.00;;;;;;;2.28;78.27;101014.11;108401;1278;22002;-79
2022/12/04 05:34:31;;;;;;;55.70;43.90;;;;;;;2.28;78.28;101013.42;108392;1280;23591;-79
2022/12/04 05:37:01;;;;;;;51.20;40.60;;;;;;;2.26;78.25;101007.74;108610;1280;22153;-79
2022/12/04 05:39:34;;;;;;;57.00;44.90;;;;;;;2.24;78.23;101007.05;108469;1280;21972;-81
2022/12/04 05:42:10;;;;;;;56.00;44.20;;;;;;;2.24;78.37;101008.94;108716;1280;21952;-80
2022/12/04 05:44:44;;;;;;;57.60;45.30;;;;;;;2.23;78.29;101009.10;108666;1282;21958;-81
2022/12/04 05:47:19;;;;;;;59.30;46.10;;;;;;;2.23;78.25;101008.59;108555;1282;22753;-81
2022/12/04 05:49:53;;;;;;;51.20;42.50;;;;;;;2.22;78.26;101014.59;108713;1281;21999;-80
2022/12/04 05:52:28;;;;;;;53.80;42.50;;;;;;;2.21;78.27;101021.63;108777;1280;22736;-79
2022/12/04 05:54:58;;;;;;;55.40;41.50;;;;;;;2.21;78.21;101018.18;108370;1275;22487;-78
2022/12/04 05:57:26;;;;;;;53.10;44.80;;;;;;;2.20;78.23;101016.98;108453;1280;23697;-78
2022/12/04 05:59:57;;;;;;;56.70;44.80;;;;;;;2.21;78.27;101015.09;108443;1268;21946;-82
2022/12/04 06:02:44;;;;;;;61.10;46.20;;;;;;;2.21;78.30;101015.61;108849;1280;22412;-82
2022/12/04 06:05:14;;;;;;;53.40;43.40;;;;;;;2.21;78.22;101014.91;107819;1274;1194053;-80
2022/12/04 06:07:44;;;;;;;55.90;46.30;;;;;;;2.20;78.30;101011.99;108615;1283;21952;-82
2022/12/04 06:10:17;;;;;;;53.30;43.80;;;;;;;2.21;78.32;101010.48;108026;1286;22036;-79
2022/12/04 06:12:48;;;;;;;59.40;45.00;;;;;;;2.21;78.23;101017.33;108315;1285;22037;-80
2022/12/04 06:15:17;;;;;;;59.30;44.40;;;;;;;2.19;78.21;101014.58;107970;1286;22084;-79
2022/12/04 06:17:45;;;;;;;55.10;43.90;;;;;;;2.20;78.24;101018.70;108062;1292;21972;-82
2022/12/04 06:20:21;;;;;;;53.80;42.60;;;;;;;2.20;78.24;101019.56;108353;1291;23600;-81
2022/12/04 06:22:59;;;;;;;56.40;43.80;;;;;;;2.21;78.16;101022.47;107928;1290;21968;-80
2022/12/04 06:25:29;;;;;;;53.20;42.60;;;;;;;2.21;78.24;101025.57;107766;1288;21978;-80
2022/12/04 06:28:10;;;;;;;49.50;41.00;;;;;;;2.21;78.32;101020.24;107807;1284;22173;-80
2022/12/04 06:30:40;;;;;;;55.40;44.40;;;;;;;2.22;78.31;101020.77;108343;1288;21956;-80
2022/12/04 06:33:31;;;;;;;53.80;42.40;;;;;;;2.20;78.24;101024.52;108269;1287;21954;-81
2022/12/04 06:36:03;;;;;;;50.40;42.90;;;;;;;2.21;78.24;101025.92;108212;1279;22540;-81
2022/12/04 06:38:32;;;;;;;54.30;44.80;;;;;;;2.25;78.22;101035.21;108507;1280;22083;-79
2022/12/04 06:41:05;;;;;;;51.20;42.30;;;;;;;2.26;78.25;101037.80;108631;1274;23867;-80
2022/12/04 06:43:38;;;;;;;49.70;42.90;;;;;;;2.25;78.25;101037.11;108573;1276;21959;-80
2022/12/04 06:46:17;;;;;;;53.10;42.80;;;;;;;2.26;78.17;101041.23;108615;1280;21937;-79
2022/12/04 06:48:45;;;;;;;57.40;45.80;;;;;;;2.27;78.24;101050.68;108544;1280;21956;-80
2022/12/04 06:51:32;;;;;;;53.50;44.70;;;;;;;2.29;78.23;101052.77;108362;1280;23628;-80
2022/12/04 06:54:05;;;;;;;51.70;43.30;;;;;;;2.28;78.14;101055.16;108507;1280;21918;-80
2022/12/04 06:56:48;;;;;;;49.60;41.40;;;;;;;2.25;78.12;101052.39;108616;1280;23051;-80
2022/12/04 06:59:35;;;;;;;50.50;40.90;;;;;;;2.23;78.12;101055.65;108769;1280;21828;-80
2022/12/04 07:02:12;;;;;;;55.50;42.50;;;;;;;2.22;78.17;101058.90;108071;1273;22299;-80
2022/12/04 07:04:44;;;;;;;49.70;40.90;;;;;;;2.24;78.20;101062.86;108587;1270;21941;-79
2022/12/04 07:07:13;;;;;;;;;;;;;;;2.25;78.12;101065.27;108596;1280;21945;-80
2022/12/04 07:09:46;;;;;;;52.50;41.40;;;;;;;2.19;78.25;101074.31;108542;1280;21952;-79
2022/12/04 07:12:14;;;;;;;50.70;38.70;;;;;;;2.19;78.35;101074.83;108584;1279;22181;-78
2022/12/04 07:14:47;;;;;;;50.10;41.00;;;;;;;2.20;78.35;101070.55;108166;1273;21939;-80
2022/12/04 07:17:25;;;;;;;49.10;40.20;;;;;;;2.22;78.23;101069.88;108808;1280;24576;-84
2022/12/04 07:19:55;;;;;;;49.00;41.70;;;;;;;2.24;78.28;101066.46;108781;1280;21968;-83
2022/12/04 07:22:25;;;;;;;49.50;41.90;;;;;;;2.25;78.23;101063.73;108752;1280;21943;-81
2022/12/04 07:24:58;;;;;;;49.30;40.90;;;;;;;2.27;78.25;101066.84;108713;1280;23774;-79
2022/12/04 07:27:30;;;;;;;49.30;41.40;;;;;;;2.30;78.20;101068.06;108793;1280;21943;-79
2022/12/04 07:30:06;;;;;;;54.40;43.00;;;;;;;2.35;78.28;101071.54;108479;1280;21942;-82
2022/12/04 07:32:46;;;;;;;53.00;43.00;;;;;;;2.34;78.20;101066.37;108842;1280;21935;-83
2022/12/04 07:35:27;;;;;;;49.50;40.40;;;;;;;2.36;78.09;101068.10;108915;1280;22007;-82
2022/12/04 07:38:41;;;;;;;45.80;39.60;;;;;;;2.34;78.19;101062.77;108918;1280;22059;-84
2022/12/04 07:41:41;;;;;;;;;;;;;;;;;;;;;
2022/12/04 07:44:49;;;;;;;54.90;46.70;;;;;;;2.37;78.17;101054.89;108702;1285;22650;-86
2022/12/04 07:47:24;;;;;;;50.10;41.90;;;;;;;2.39;78.22;101054.02;108671;1286;22746;-85
2022/12/04 07:49:59;;;;;;;51.30;40.90;;;;;;;2.45;78.30;101052.02;108895;1286;21941;-86
2022/12/04 07:52:39;;;;;;;47.60;41.70;;;;;;;2.52;78.28;101051.02;108396;1289;22234;-87
2022/12/04 07:58:58;;;;;;;52.70;41.40;;;;;;;2.55;78.21;101056.04;107929;1293;23176;-82
2022/12/04 08:02:26;;;;;;;;;;;;;;;;;;;;;
2022/12/04 08:06:03;;;;;;;44.90;37.50;;;;;;;2.59;78.23;101054.35;107104;1303;22127;-83
2022/12/04 08:09:54;;;;;;;45.50;36.20;;;;;;;2.64;78.27;101060.55;106648;1307;21976;-83
2022/12/04 08:14:05;;;;;;;;;;;;;;;;;;;;;
2022/12/04 08:16:26;;;;;;;49.90;41.10;;;;;;;2.65;77.96;101059.36;106467;1312;21983;-83
2022/12/04 08:19:55;;;;;;;;;;;;;;;;;;;;;
2022/12/04 08:22:41;;;;;;;49.80;38.60;;;;;;;2.69;77.98;101068.15;106351;1309;22758;-83
2022/12/04 08:25:30;;;;;;;;;;;;;;;;;;;;;
2022/12/04 08:28:17;;;;;;;50.50;38.90;;;;;;;2.73;77.80;101074.54;106439;1306;22200;-83
2022/12/04 08:31:22;;;;;;;53.30;43.70;;;;;;;2.79;77.65;101075.08;106228;1310;544581;-84
2022/12/04 08:33:59;;;;;;;46.40;39.30;;;;;;;2.76;77.73;101073.00;108439;1285;21920;-83
2022/12/04 08:36:42;;;;;;;49.80;39.70;;;;;;;2.78;77.73;101069.06;108500;1285;22473;-84
2022/12/04 08:39:24;;;;;;;53.80;41.30;;;;;;;2.78;77.61;101067.34;109230;1274;24257;-84
2022/12/04 08:42:55;;;;;;;50.80;40.70;;;;;;;2.80;77.63;101070.96;109158;1280;21937;-85
2022/12/04 08:45:49;;;;;;;;;;;;;;;;;;;;;
2022/12/04 08:48:57;;;;;;;54.70;42.70;;;;;;;2.83;77.75;101062.39;108726;1275;21967;-84
2022/12/04 08:51:39;;;;;;;47.70;40.50;;;;;;;2.86;77.71;101060.69;108964;1277;21921;-83
2022/12/04 08:54:16;;;;;;;49.90;38.90;;;;;;;2.89;77.56;101055.54;108290;1282;21915;-81
2022/12/04 08:57:26;;;;;;;52.40;40.70;;;;;;;2.86;77.43;101059.48;108804;1282;21956;-82
2022/12/04 09:00:15;;;;;;;50.60;41.10;;;;;;;2.84;77.43;101060.51;109057;1279;21966;-84
2022/12/04 09:03:07;;;;;;;47.00;39.20;;;;;;;2.86;77.52;101058.45;109135;1279;21959;-83
2022/12/04 09:05:51;;;;;;;54.10;40.40;;;;;;;2.89;77.53;101065.00;108886;1277;21956;-82
2022/12/04 09:08:54;;;;;;;52.60;39.90;;;;;;;2.90;77.58;101065.00;108485;1284;21955;-82
2022/12/04 09:11:45;;;;;;;54.70;42.30;;;;;;;2.90;77.54;101069.47;108614;1277;22309;-81
2022/12/04 09:14:18;;;;;;;48.90;41.20;;;;;;;2.92;77.47;101072.56;108894;1278;23720;-81
2022/12/04 09:16:59;;;;;;;47.90;39.10;;;;;;;2.95;77.45;101070.86;108761;1279;22100;-80
2022/12/04 09:19:37;;;;;;;47.20;40.10;;;;;;;2.97;77.39;101069.52;108823;1279;21965;-81
2022/12/04 09:22:33;;;;;;;48.40;38.80;;;;;;;2.95;77.42;101063.48;108621;1282;21952;-81
2022/12/04 09:25:51;;;;;;;49.40;39.70;;;;;;;2.94;77.55;101058.84;108571;1277;22307;-81
2022/12/04 09:28:20;;;;;;;48.10;38.80;;;;;;;2.97;77.44;101062.28;109172;1277;22083;-81
2022/12/04 09:31:25;;;;;;;49.10;39.30;;;;;;;2.98;77.48;101065.72;108941;1274;21936;-81
2022/12/04 09:34:01;;;;;;;49.50;41.10;;;;;;;3.02;77.49;101067.64;109121;1274;23538;-81
2022/12/04 09:36:37;;;;;;;46.80;39.00;;;;;;;3.07;77.35;101072.99;108939;1276;21967;-80
2022/12/04 09:39:10;;;;;;;49.20;40.70;;;;;;;3.10;77.21;101078.16;109060;1277;22427;-80
2022/12/04 09:41:49;;;;;;;54.20;42.80;;;;;;;3.09;77.16;101070.08;109290;1274;21961;-81
2022/12/04 09:44:51;;;;;;;49.00;41.90;;;;;;;3.13;77.12;101068.38;109495;1268;21912;-81
2022/12/04 09:47:35;;;;;;;53.20;44.10;;;;;;;3.15;77.04;101068.20;109235;1260;21927;-85
2022/12/04 09:50:45;;;;;;;52.20;43.20;;;;;;;3.13;77.00;101065.45;109171;1271;21944;-84
2022/12/04 09:53:25;;;;;;;47.60;41.50;;;;;;;3.11;76.93;101065.27;109401;1271;22360;-84
2022/12/04 09:56:16;;;;;;;43.00;37.00;;;;;;;3.13;77.05;101065.80;109281;1277;24269;-86
2022/12/04 09:59:20;;;;;;;40.40;34.10;;;;;;;3.15;76.96;101068.55;109242;1277;22422;-84
2022/12/04 10:02:23;;;;;;;42.30;35.90;;;;;;;3.17;77.09;101070.45;109380;1274;21939;-84
2022/12/04 10:04:58;;;;;;;50.40;43.10;;;;;;;3.24;77.16;101072.38;109383;1268;21947;-86
2022/12/04 10:08:17;;;;;;;42.00;36.10;;;;;;;3.25;76.82;101075.30;109372;1275;21951;-85
2022/12/04 10:11:04;;;;;;;48.70;39.50;;;;;;;3.27;76.89;101077.21;109252;1281;23438;-88
2022/12/04 10:14:18;;;;;;;43.20;38.10;;;;;;;3.29;76.74;101077.56;109103;1282;22139;-85
2022/12/04 10:17:36;;;;;;;44.60;37.60;;;;;;;3.25;76.73;101069.80;109121;1279;22010;-84
2022/12/04 10:20:27;;;;;;;43.20;36.00;;;;;;;3.19;76.65;101065.48;109057;1271;22094;-82
2022/12/04 10:23:47;;;;;;;37.60;31.90;;;;;;;3.16;76.66;101069.42;108978;1276;22389;-83
2022/12/04 10:26:31;;;;;;;39.60;33.70;;;;;;;3.06;76.51;101063.53;109119;1277;22061;-83
2022/12/04 10:29:15;;;;;;;39.90;33.30;;;;;;;3.02;76.68;101061.45;109126;1274;21994;-86
2022/12/04 10:31:57;;;;;;;44.20;37.20;;;;;;;3.02;76.75;101065.23;109432;1263;21932;-83
2022/12/04 10:34:55;;;;;;;43.70;35.70;;;;;;;3.03;76.71;101065.41;108708;1280;22082;-81
2022/12/04 10:37:42;;;;;;;43.50;35.60;;;;;;;3.03;76.66;101067.98;108202;1286;21948;-82
2022/12/04 10:40:28;;;;;;;42.00;35.00;;;;;;;3.01;76.68;101066.44;108298;1286;23734;-82
2022/12/04 10:43:27;;;;;;;42.20;35.40;;;;;;;2.99;76.72;101060.23;108277;1286;22772;-82
2022/12/04 10:46:01;;;;;;;51.90;43.50;;;;;;;2.98;76.75;101054.38;108325;1290;22771;-81
2022/12/04 10:48:39;;;;;;;68.80;54.00;;;;;;;3.04;76.97;101053.38;107941;1283;22053;-82
2022/12/04 10:51:22;;;;;;;62.80;50.00;;;;;;;3.10;76.91;101054.94;108003;1289;22300;-81
2022/12/04 10:54:44;;;;;;;55.40;41.80;;;;;;;3.09;76.73;101043.94;108339;1284;23061;-81
2022/12/04 10:57:42;;;;;;;49.10;41.80;;;;;;;3.11;76.82;101045.84;108740;1281;24151;-84
2022/12/04 11:00:25;;;;;;;51.90;42.50;;;;;;;3.17;76.85;101043.44;108610;1282;21983;-81
2022/12/04 11:03:29;;;;;;;41.50;36.20;;;;;;;3.16;76.63;101044.66;108655;1274;22711;-82
2022/12/04 11:06:27;;;;;;;42.40;36.40;;;;;;;3.11;76.61;101043.09;108888;1277;21944;-80
2022/12/04 11:09:08;;;;;;;47.00;38.90;;;;;;;3.11;76.57;101038.45;109048;1277;21951;-82
2022/12/04 11:12:24;;;;;;;45.50;36.90;;;;;;;3.11;76.68;101029.15;108984;1277;22992;-82
2022/12/04 11:15:16;;;;;;;38.70;32.60;;;;;;;3.12;76.61;101028.13;109026;1274;23074;-83
2022/12/04 11:18:31;;;;;;;40.40;36.20;;;;;;;3.06;76.39;101028.80;108884;1272;22088;-83
2022/12/04 11:21:02;;;;;;;38.40;34.20;;;;;;;3.00;76.53;101022.40;109243;1271;21899;-83
2022/12/04 11:23:57;;;;;;;40.80;34.00;;;;;;;2.99;76.59;101020.69;109480;1265;21952;-80
2022/12/04 11:26:51;;;;;;;44.70;38.00;;;;;;;2.94;76.54;101017.40;109321;1262;22001;-82
2022/12/04 11:29:41;;;;;;;42.20;36.50;;;;;;;2.91;76.63;101012.73;109200;1271;21969;-81
2022/12/04 11:32:32;;;;;;;42.60;34.50;;;;;;;2.95;76.73;101015.51;109224;1271;21949;-82
2022/12/04 11:35:22;;;;;;;41.20;34.40;;;;;;;2.94;76.68;101016.36;109200;1265;21959;-82
2022/12/04 11:38:20;;;;;;;47.70;38.90;;;;;;;2.92;76.67;101011.53;108697;1277;21938;-83
2022/12/04 11:41:05;;;;;;;47.00;39.00;;;;;;;2.92;76.72;101012.05;108950;1270;22155;-82
2022/12/04 11:43:57;;;;;;;51.30;41.20;;;;;;;2.94;76.87;101011.39;109110;1279;22362;-83
2022/12/04 11:48:01;;;;;;;;;;;;;;;;;;;;;
2022/12/04 11:52:14;;;;;;;48.50;39.50;;;;;;;2.95;76.88;101018.77;108806;1274;23700;-84
2022/12/04 11:56:38;;;;;;;51.90;41.30;;;;;;;2.97;77.00;101023.61;108855;1279;21964;-84
2022/12/04 12:04:09;;;;;;;;;;;;;;;;;;;;;
2022/12/04 12:07:20;;;;;;;41.90;35.20;;;;;;;3.16;76.76;101037.42;109285;1275;23106;-84
2022/12/04 12:10:42;;;;;;;54.80;42.50;;;;;;;3.18;76.89;101030.55;109214;1275;23676;-84
2022/12/04 12:14:24;;;;;;;45.80;36.10;;;;;;;3.20;76.79;101032.11;109033;1275;21955;-82
2022/12/04 12:18:17;;;;;;;;;;;;;;;;;;;;;
2022/12/04 12:21:56;;;;;;;50.10;39.00;;;;;;;3.26;76.74;101018.54;108707;1279;22015;-82
2022/12/04 12:25:23;;;;;;;38.70;33.30;;;;;;;3.29;76.70;101017.86;108551;1281;22791;-79
2022/12/04 12:28:49;;;;;;;38.70;33.30;;;;;;;3.28;76.69;101016.48;108783;1277;21928;-80
2022/12/04 12:32:22;;;;;;;39.60;33.40;;;;;;;3.28;76.66;101012.18;108627;1267;21903;-79
2022/12/04 12:34:55;;;;;;;40.40;34.70;;;;;;;3.27;76.68;101009.59;108306;1283;23363;-78
2022/12/04 12:38:16;;;;;;;47.70;40.40;;;;;;;3.30;76.66;101004.97;108133;1283;22221;-81
2022/12/04 12:40:52;;;;;;;45.80;37.80;;;;;;;3.33;76.70;100993.27;107931;1289;21962;-78
2022/12/04 12:43:35;;;;;;;50.80;42.00;;;;;;;3.37;76.69;100988.63;107887;1288;21984;-78
2022/12/04 12:46:48;;;;;;;48.30;40.90;;;;;;;3.40;76.68;100992.26;107024;1293;23054;-79
2022/12/04 12:49:57;;;;;;;43.30;38.40;;;;;;;3.39;76.56;100984.86;107093;1289;22034;-79
2022/12/04 12:53:25;;;;;;;53.50;44.50;;;;;;;3.37;76.51;100988.11;107365;1291;21966;-79
2022/12/04 12:56:51;;;;;;;45.60;37.80;;;;;;;3.32;76.54;100991.20;107769;1292;21954;-79
2022/12/04 12:59:28;;;;;;;45.70;38.30;;;;;;;3.32;76.60;100993.61;107324;1287;23711;-80
2022/12/04 13:02:34;;;;;;;;;;;;;;;;;;;;;
2022/12/04 13:05:55;;;;;;;44.20;37.40;;;;;;;3.30;76.53;100998.59;108299;1283;21983;-80
2022/12/04 13:09:53;;;;;;;41.60;34.10;;;;;;;3.24;76.46;101001.48;108303;1277;21939;-79
2022/12/04 13:13:21;;;;;;;43.10;35.40;;;;;;;3.15;76.61;100998.21;107919;1288;21966;-81
2022/12/04 13:16:37;;;;;;;44.30;37.50;;;;;;;3.10;76.61;100993.90;108169;1284;21928;-79
2022/12/04 13:19:42;;;;;;;40.30;34.50;;;;;;;3.05;76.67;100995.09;108587;1281;22476;-81
2022/12/04 13:22:54;;;;;;;41.70;36.80;;;;;;;3.01;76.83;100996.61;108331;1286;22184;-79
2022/12/04 13:26:02;;;;;;;48.00;41.40;;;;;;;3.00;76.84;100992.83;108237;1272;23798;-80